• Join FlightAware (Why Join?)
  • Login
  • US Flag 
03:25PM EDT


 

Airport Tracker/Info


-or-


 

Live Flight TrackerFlight Track Log ✈ CDG4723 ✈ 26-Sep-2013 ✈ ZUCK / CKG - ZSWY / WUS

Flight Track Log - Related Links

Times and Time Zones

All times are in EDT time to prevent confusion due to time zone crossing. See the CDG4723 flight status page for this flight to view local times or setup timezone preferences in your user account.

Time Position Orientation Groundspeed Altitude Reporting Facility
EDT Latitude Longitude Course Direction KTS MPH feet Rate Location/Type
07:11PM 29.6020 107.5050 99° East  Level Estimated
07:12PM 29.5869 107.6129 99° East  Level Estimated
07:13PM 29.5717 107.7207 99° East  Level Estimated
07:14PM 29.5565 107.8285 99° East  Level Estimated
07:15PM 29.5412 107.9362 99° East  Level Estimated
07:16PM 29.5271 108.0348 99° East  Level Estimated
07:17PM 29.5129 108.1332 99° East  Level Estimated
07:18PM 29.4987 108.2317 99° East  Level Estimated
07:19PM 29.4844 108.3301 99° East  Level Estimated
07:20PM 29.4700 108.4286 100° East  Level Estimated
07:21PM 29.4555 108.5269 100° East  Level Estimated
07:22PM 29.4410 108.6253 100° East  Level Estimated
07:23PM 29.4264 108.7236 100° East  Level Estimated
07:24PM 29.4117 108.8219 100° East  Level Estimated
07:25PM 29.3969 108.9202 100° East  Level Estimated
07:26PM 29.3821 109.0184 100° East  Level Estimated
07:27PM 29.3672 109.1166 100° East  Level Estimated
07:28PM 29.3523 109.2148 100° East  Level Estimated
07:29PM 29.3372 109.3130 100° East  Level Estimated
07:30PM 29.3221 109.4111 100° East  Level Estimated
07:31PM 29.3070 109.5092 100° East  Level Estimated
07:32PM 29.2917 109.6072 100° East  Level Estimated
07:33PM 29.2764 109.7053 100° East  Level Estimated
07:34PM 29.2610 109.8033 100° East  Level Estimated
07:35PM 29.2455 109.9013 100° East  Level Estimated
07:36PM 29.2300 109.9992 100° East  Level Estimated
07:37PM 29.2144 110.0972 100° East  Level Estimated
07:38PM 29.1987 110.1950 100° East  Level Estimated
07:39PM 29.1830 110.2929 100° East  Level Estimated
07:40PM 29.1671 110.3907 100° East  Level Estimated
07:41PM 29.1513 110.4885 101° East  Level Estimated
07:42PM 29.1353 110.5863 101° East  Level Estimated
07:43PM 29.1193 110.6840 101° East  Level Estimated
07:44PM 29.1032 110.7818 101° East  Level Estimated
07:45PM 29.0870 110.8794 101° East  Level Estimated
07:46PM 29.0707 110.9771 101° East  Level Estimated
07:47PM 29.0544 111.0747 101° East  Level Estimated
07:48PM 29.0380 111.1723 101° East  Level Estimated
07:49PM 29.0216 111.2698 101° East  Level Estimated
07:50PM 29.0050 111.3673 101° East  Level Estimated
07:51PM 28.9884 111.4648 101° East  Level Estimated
07:52PM 28.9718 111.5623 101° East  Level Estimated
07:53PM 28.9550 111.6597 101° East  Level Estimated
07:54PM 28.9382 111.7571 101° East  Level Estimated
07:55PM 28.9213 111.8545 101° East  Level Estimated
07:56PM 28.9044 111.9518 101° East  Level Estimated
07:57PM 28.8874 112.0491 101° East  Level Estimated
07:58PM 28.8703 112.1464 101° East  Level Estimated
07:59PM 28.8531 112.2436 101° East  Level Estimated
08:00PM 28.8359 112.3408 101° East  Level Estimated
08:01PM 28.8186 112.4380 101° East  Level Estimated
08:02PM 28.8012 112.5351 102° East  Level Estimated
08:03PM 28.7838 112.6322 102° East  Level Estimated
08:04PM 28.7663 112.7293 102° East  Level Estimated
08:05PM 28.7487 112.8263 102° East  Level Estimated
08:06PM 28.7310 112.9234 102° East  Level Estimated
08:07PM 28.7133 113.0203 102° East  Level Estimated
08:08PM 28.6956 113.1173 102° East  Level Estimated
08:09PM 28.6777 113.2142 102° East  Level Estimated
08:10PM 28.6598 113.3111 102° East  Level Estimated
08:11PM 28.6418 113.4079 102° East  Level Estimated
08:12PM 28.6237 113.5047 102° East  Level Estimated
08:13PM 28.6056 113.6015 102° East  Level Estimated
08:14PM 28.5874 113.6982 102° East  Level Estimated
08:15PM 28.5691 113.7950 102° East  Level Estimated
08:16PM 28.5508 113.8916 102° East  Level Estimated
08:17PM 28.5324 113.9883 102° East  Level Estimated
08:18PM 28.5139 114.0849 102° East  Level Estimated
08:19PM 28.4954 114.1815 102° East  Level Estimated
08:20PM 28.4768 114.2780 102° East  Level Estimated
08:21PM 28.4581 114.3745 102° East  Level Estimated
08:22PM 28.4394 114.4710 102° East  Level Estimated
08:23PM 28.4206 114.5674 102° East  Level Estimated
08:24PM 28.4017 114.6638 103° East  Level Estimated
08:25PM 28.3827 114.7602 103° East  Level Estimated
08:26PM 28.3637 114.8565 103° East  Level Estimated
08:27PM 28.3446 114.9528 103° East  Level Estimated
08:28PM 28.3255 115.0491 103° East  Level Estimated
08:29PM 28.3063 115.1453 103° East  Level Estimated
08:30PM 28.2870 115.2415 103° East  Level Estimated
08:31PM 28.2676 115.3377 103° East  Level Estimated
08:32PM 28.2482 115.4338 103° East  Level Estimated
08:33PM 28.2287 115.5299 103° East  Level Estimated
08:34PM 28.2092 115.6260 103° East  Level Estimated
08:35PM 28.1896 115.7220 103° East  Level Estimated
08:36PM 28.1699 115.8180 103° East  Level Estimated
08:37PM 28.1501 115.9139 103° East  Level Estimated
08:38PM 28.1303 116.0098 103° East  Level Estimated
08:39PM 28.1104 116.1057 103° East  Level Estimated
08:40PM 28.0904 116.2016 103° East  Level Estimated
08:41PM 28.0704 116.2974 103° East  Level Estimated
08:42PM 28.0503 116.3932 103° East  Level Estimated
08:43PM 28.0302 116.4889 103° East  Level Estimated
08:44PM 28.0100 116.5846 103° East  Level Estimated
08:45PM 27.9897 116.6803 103° East  Level Estimated
08:46PM 27.9693 116.7759 104° East  Level Estimated
08:47PM 27.9489 116.8715 104° East  Level Estimated
08:48PM 27.9284 116.9670 104° East  Level Estimated
08:49PM 27.9079 117.0626 104° East  Level Estimated
08:50PM 27.8872 117.1580 104° East  Level Estimated
08:51PM 27.8666 117.2535 104° East  Level Estimated
08:52PM 27.8458 117.3489 104° East  Level Estimated
08:53PM 27.8250 117.4443 104° East  Level Estimated
08:54PM 27.8041 117.5396 104° East  Level Estimated
08:55PM 27.7832 117.6349 104° East  Level Estimated
08:56PM 27.7622 117.7302 104° East  Level Estimated
08:57PM 27.7411 117.8254 104° East  Level Estimated